NLSK1: Solomon River, Niles, KS

                                SHEF ID:       NLSK1     SOLOMON R AT NILES, KS
STATION TYPE:

PRECIP STAGE RIV-FLOW BAT-LOAD
in ft cfs volt
Ccp-Rev Ccp-Rev Ccp-Rev Ccp-Rev
(America/Chicago)
06/29 00:00 0.00 11.30 1337 11.66
06/29 01:00 0.00 11.26 1327 11.67
06/29 02:00 0.00 11.21 1314 11.66
06/29 03:00 0.00 11.17 1304 11.61
06/29 04:00 0.00 11.12 1291 11.84
06/29 05:00 0.00 11.06 1276 11.94
06/29 06:00 0.00 11.01 1264 11.91
06/29 07:00 0.00 10.96 1251 11.81
06/29 08:00 0.00 10.92 1241 11.91
06/29 09:00 0.00 10.86 1227 11.94
06/29 10:00 0.00 10.81 1214 12.27
06/29 11:00 0.00 10.76 1202 12.52
06/29 12:00 0.00 10.71 1190 12.65
06/29 13:00 0.00 10.66 1178 12.60
06/29 14:00 0.00 10.62 1168 12.47
06/29 15:00 0.00 10.57 1156 12.43
06/29 16:00 0.00 10.51 1141 12.46
06/29 17:00 0.00 10.46 1129 12.67
06/29 18:00 0.00 10.41 1117 12.40
06/29 19:00 0.00 10.36 1106 12.14
06/29 20:00 0.00 10.30 1091 12.07
06/29 21:00 0.00 10.25 1080 11.98
06/29 22:00 0.00 10.20 1068 11.99
06/29 23:00 0.00 10.14 1054 12.01
Data processed at Tue 30Jun2026 04:41 GMT

NOTICE: If you are parsing this page

Please convert to using our Data API. Starting early 2026 we will be migrating to: https://water.usace.army.mil with modern pages rendered in JavaScript. When this migration completes you will no longer be able to scrape this page! CWMSDataAPI (CDA)

Timeseries IDs (TSIDs)

TSIDs used from left to right in the data table
NLSK.Precip-Inc.Total.1Hour.1Hour.Ccp-Rev
NLSK.Stage.Inst.1Hour.0.Ccp-Rev
NLSK.Flow.Inst.1Hour.0.Ccp-Rev
NLSK.Volt-Battery Load.Inst.1Hour.0.Ccp-Rev

                            

All information presented herein is the property of the government of the United States of America and may be revised or deleted at any time without prior notice. Dissemination of this information without the expressed written consent of the Public Affairs Office, Tulsa District U.S. Army Corps of Engineers is strictly prohibited. These data are gathered electronically and, as presented, have NOT undergone any form of quality control. These data are NOT guaranteed to be valid or correct.